Time;durP1;ratioP1;P1;durP2;ratioP2;P2;SDS_P1;SDS_P2;PMS_P1;PMS_P2;Temp;Humidity;BMP_temperature;BMP_pressure;BME280_temperature;BME280_humidity;BME280_pressure;Samples;Min_cycle;Max_cycle;Signal;HPM_P1;HPM_P2
2024/04/11 00:02:57;;;;;;;3.50;2.73;;;;;;;9.84;79.71;99084.00;6794016;26;20244;-59
2024/04/11 00:06:01;;;;;;;4.07;3.10;;;;;;;9.79;79.03;99081.94;6788956;26;20309;-57
2024/04/11 00:09:04;;;;;;;4.13;2.40;;;;;;;9.99;77.89;99089.13;6801704;26;20277;-56
2024/04/11 00:12:07;;;;;;;4.73;3.07;;;;;;;9.91;77.30;99073.38;6785912;26;20225;-60
2024/04/11 00:15:10;;;;;;;3.60;2.80;;;;;;;9.97;77.17;99089.34;6791316;26;20278;-58
2024/04/11 00:18:13;;;;;;;3.33;2.47;;;;;;;9.88;79.17;99092.41;6782684;26;20285;-59
2024/04/11 00:21:18;;;;;;;6.40;3.57;;;;;;;9.77;77.41;99075.19;6791609;26;20230;-60
2024/04/11 00:24:21;;;;;;;3.40;3.10;;;;;;;9.91;77.60;99086.69;6790523;26;20241;-59
2024/04/11 00:27:23;;;;;;;5.17;3.17;;;;;;;10.02;78.07;99086.88;6786074;26;20737;-59
2024/04/11 00:30:26;;;;;;;5.40;3.27;;;;;;;9.93;77.63;99080.13;6790581;26;20290;-60
2024/04/11 00:33:28;;;;;;;4.00;2.97;;;;;;;9.91;77.88;99081.34;6803243;26;20287;-60
2024/04/11 00:36:32;;;;;;;5.43;3.40;;;;;;;9.89;78.81;99076.22;6793141;26;20234;-59
2024/04/11 00:39:36;;;;;;;4.93;2.67;;;;;;;10.12;78.02;99075.00;6785528;26;20248;-57
2024/04/11 00:42:38;;;;;;;3.63;2.83;;;;;;;10.01;79.30;99073.78;6772687;26;20274;-59
2024/04/11 00:45:47;;;;;;;3.87;3.10;;;;;;;9.81;77.82;99058.63;6791931;26;20240;-60
2024/04/11 00:48:49;;;;;;;4.63;3.30;;;;;;;9.82;77.83;99070.88;6798247;26;20232;-58
2024/04/11 00:51:52;;;;;;;4.80;3.20;;;;;;;9.86;78.33;99073.97;6778997;26;20281;-60
2024/04/11 00:54:56;;;;;;;4.67;3.50;;;;;;;9.88;77.59;99074.59;6777535;26;20255;-60
2024/04/11 00:57:59;;;;;;;6.30;3.47;;;;;;;10.06;75.94;99056.16;6779950;26;20773;-57
2024/04/11 01:01:04;;;;;;;4.60;3.67;;;;;;;10.22;76.99;99073.59;6781876;26;20238;-58
2024/04/11 01:04:07;;;;;;;5.10;3.07;;;;;;;10.03;76.64;99064.56;6789466;26;20338;-59
2024/04/11 01:07:12;;;;;;;4.13;3.40;;;;;;;10.08;76.36;99066.59;6773520;26;20267;-57
2024/04/11 01:10:17;;;;;;;5.50;3.70;;;;;;;10.02;76.59;99073.56;6795510;26;20236;-58
2024/04/11 01:13:20;;;;;;;5.13;3.10;;;;;;;10.13;76.94;99068.66;6777676;26;20234;-59
2024/04/11 01:16:25;;;;;;;6.53;2.90;;;;;;;9.98;79.31;99072.34;6782470;26;20260;-59
2024/04/11 01:19:28;;;;;;;7.97;3.90;;;;;;;10.08;76.97;99075.41;6792102;26;20238;-59
2024/04/11 01:22:30;;;;;;;5.27;3.67;;;;;;;9.96;76.24;99078.91;6794871;26;20240;-60
2024/04/11 01:25:34;;;;;;;3.80;2.70;;;;;;;9.96;77.96;99060.28;6780653;26;20278;-61
2024/04/11 01:28:36;;;;;;;5.70;3.00;;;;;;;9.94;79.14;99079.09;6775914;26;20301;-58
2024/04/11 01:31:40;;;;;;;2.90;2.60;;;;;;;9.85;78.68;99071.50;6778342;26;20284;-60
2024/04/11 01:34:44;;;;;;;4.67;3.43;;;;;;;10.04;76.85;99079.50;6777603;26;20934;-59
2024/04/11 01:37:47;;;;;;;4.60;3.17;;;;;;;10.08;77.64;99075.41;6797571;26;20711;-60
2024/04/11 01:40:50;;;;;;;3.73;3.03;;;;;;;10.06;77.06;99081.97;6789800;26;20231;-61
2024/04/11 01:43:53;;;;;;;4.93;3.07;;;;;;;10.07;77.67;99087.09;6782584;26;20281;-58
2024/04/11 01:46:55;;;;;;;5.90;2.80;;;;;;;10.18;76.13;99087.50;6782460;26;20234;-60
2024/04/11 01:49:57;;;;;;;5.50;3.20;;;;;;;9.91;76.63;99079.50;6791747;26;20252;-58
2024/04/11 01:53:01;;;;;;;6.47;3.50;;;;;;;10.12;76.08;99078.50;6792160;26;20339;-59
2024/04/11 01:56:09;;;;;;;4.10;2.80;;;;;;;10.12;77.60;99067.03;6780266;26;20283;-59
2024/04/11 01:59:12;;;;;;;4.33;2.63;;;;;;;9.96;78.80;99077.06;6787447;26;20233;-60
2024/04/11 02:02:16;;;;;;;3.67;2.60;;;;;;;10.01;78.12;99076.44;6785665;26;20771;-60
2024/04/11 02:05:20;;;;;;;3.60;3.13;;;;;;;9.74;79.43;99067.59;6802866;26;20324;-60
2024/04/11 02:08:22;;;;;;;4.03;2.97;;;;;;;9.89;77.10;99078.88;6787400;26;20287;-59
2024/04/11 02:11:25;;;;;;;4.43;3.43;;;;;;;9.92;77.11;99081.16;6788332;26;20288;-60
2024/04/11 02:14:29;;;;;;;7.57;3.03;;;;;;;9.91;78.53;99078.69;6797082;26;20241;-56
2024/04/11 02:17:32;;;;;;;3.47;2.57;;;;;;;10.02;77.85;99076.25;6800118;26;20283;-56
2024/04/11 02:20:35;;;;;;;4.43;3.27;;;;;;;9.95;77.20;99074.56;6777852;26;20226;-57
2024/04/11 02:23:39;;;;;;;3.50;2.20;;;;;;;9.92;78.55;99078.47;6785931;26;20339;-58
2024/04/11 02:26:42;;;;;;;5.00;2.93;;;;;;;9.79;79.11;99087.25;6782985;26;20226;-55
2024/04/11 02:29:47;;;;;;;4.03;3.00;;;;;;;9.77;79.04;99081.31;6794161;26;20237;-58
2024/04/11 02:32:49;;;;;;;4.53;3.40;;;;;;;9.78;78.43;99082.97;6770682;26;20274;-59
2024/04/11 02:35:52;;;;;;;4.60;3.30;;;;;;;9.80;78.79;99088.06;6784088;26;20240;-61
2024/04/11 02:38:56;;;;;;;3.93;3.23;;;;;;;9.70;77.95;99074.34;6779369;26;20281;-59
2024/04/11 02:42:00;;;;;;;5.27;3.57;;;;;;;9.73;78.42;99092.56;6788423;26;20237;-57
2024/04/11 02:45:03;;;;;;;5.17;3.20;;;;;;;9.73;77.91;99079.25;6778559;26;20282;-58
2024/04/11 02:48:06;;;;;;;5.80;3.30;;;;;;;9.80;78.48;99085.41;6773810;26;20366;-60
2024/04/11 02:51:14;;;;;;;5.90;2.87;;;;;;;9.79;79.02;99092.56;6787038;26;20279;-60
2024/04/11 02:54:17;;;;;;;4.87;3.60;;;;;;;9.64;78.83;99083.13;6792331;26;20247;-59
2024/04/11 02:57:21;;;;;;;4.30;3.10;;;;;;;9.76;78.15;99092.19;6767652;26;20309;-60
2024/04/11 03:00:24;;;;;;;4.10;2.97;;;;;;;9.61;79.87;99089.69;6774661;26;20239;-59
2024/04/11 03:03:27;;;;;;;4.60;3.10;;;;;;;9.62;79.96;99096.66;6782861;26;20235;-61
2024/04/11 03:06:33;;;;;;;7.33;2.87;;;;;;;9.61;80.05;99096.84;6781675;26;20236;-57
2024/04/11 03:09:35;;;;;;;3.87;2.93;;;;;;;9.49;81.05;99102.72;6786081;26;20287;-60
2024/04/11 03:12:38;;;;;;;8.30;4.37;;;;;;;9.34;82.15;99098.59;6797470;26;20241;-58
2024/04/11 03:15:41;;;;;;;4.07;2.73;;;;;;;9.38;82.73;99099.84;6781806;26;20267;-61
2024/04/11 03:18:44;;;;;;;3.67;2.97;;;;;;;9.42;82.56;99091.25;6786577;26;20686;-60
2024/04/11 03:21:46;;;;;;;4.13;2.97;;;;;;;9.34;82.63;99099.41;6787597;26;20227;-59
2024/04/11 03:24:49;;;;;;;3.33;2.63;;;;;;;9.15;84.45;99098.31;6777127;26;20235;-60
2024/04/11 03:27:51;;;;;;;3.07;2.77;;;;;;;9.04;84.19;99098.88;6789645;26;20291;-57
2024/04/11 03:31:04;;;;;;;4.03;3.33;;;;;;;8.96;85.32;99099.00;6775128;26;20287;-60
2024/04/11 03:34:07;;;;;;;6.17;3.10;;;;;;;8.91;85.92;99098.78;6775227;26;20256;-60
2024/04/11 03:37:10;;;;;;;4.43;3.07;;;;;;;8.89;86.02;99099.00;6784917;26;20236;-58
2024/04/11 03:40:12;;;;;;;6.07;3.33;;;;;;;8.73;86.82;99092.16;6779426;26;20287;-62
2024/04/11 03:43:15;;;;;;;6.03;3.37;;;;;;;8.63;87.32;99097.00;6773683;26;20238;-59
2024/04/11 03:46:23;;;;;;;5.00;3.00;;;;;;;8.70;86.54;99089.06;6787196;26;20235;-60
2024/04/11 03:49:27;;;;;;;4.90;2.97;;;;;;;8.50;88.40;99103.03;6795671;26;20232;-59
2024/04/11 03:52:31;;;;;;;6.03;2.97;;;;;;;8.37;89.19;99099.44;6794225;26;20274;-62
2024/04/11 03:55:41;;;;;;;4.30;3.10;;;;;;;8.37;90.57;99104.75;6780233;26;20306;-60
2024/04/11 03:58:50;;;;;;;3.77;3.37;;;;;;;8.25;90.63;99104.44;6782166;26;20243;-59
2024/04/11 04:01:53;;;;;;;3.40;3.10;;;;;;;8.17;91.23;99109.88;6797576;26;20239;-61
2024/04/11 04:04:56;;;;;;;4.83;2.87;;;;;;;8.05;92.31;99114.06;6789193;26;20314;-57
2024/04/11 04:07:59;;;;;;;3.27;2.90;;;;;;;8.00;92.77;99109.31;6779068;26;20342;-58
2024/04/11 04:11:02;;;;;;;4.23;3.10;;;;;;;7.89;93.57;99109.84;6786635;26;20346;-58
2024/04/11 04:14:08;;;;;;;5.47;2.90;;;;;;;7.84;94.44;99112.22;6773920;26;20228;-59
2024/04/11 04:17:12;;;;;;;5.80;3.10;;;;;;;7.70;94.76;99111.28;6775797;26;20236;-58
2024/04/11 04:20:14;;;;;;;8.00;3.00;;;;;;;7.71;95.55;99129.63;6789566;26;20232;-61
2024/04/11 04:23:18;;;;;;;6.33;4.20;;;;;;;7.49;97.30;99128.78;6784703;26;20277;-58
2024/04/11 04:26:22;;;;;;;3.67;3.20;;;;;;;7.45;96.93;99129.34;6796198;26;20238;-60
2024/04/11 04:29:25;;;;;;;4.90;3.30;;;;;;;7.47;97.37;99122.00;6773533;26;20287;-58
2024/04/11 04:32:28;;;;;;;5.43;3.50;;;;;;;7.28;97.50;99128.72;6778457;26;20236;-60
2024/04/11 04:35:31;;;;;;;4.87;3.40;;;;;;;7.14;98.29;99118.94;6782739;26;20321;-60
2024/04/11 04:38:34;;;;;;;6.53;3.37;;;;;;;7.14;99.18;99133.06;6792370;26;20235;-61
2024/04/11 04:41:37;;;;;;;5.13;3.50;;;;;;;7.22;99.07;99134.75;6778380;26;20284;-58
2024/04/11 04:44:40;;;;;;;7.60;3.67;;;;;;;7.22;99.57;99124.16;6790949;26;20318;-59
2024/04/11 04:47:43;;;;;;;4.40;3.07;;;;;;;7.05;100.00;99135.97;6784762;26;20227;-60
2024/04/11 04:50:46;;;;;;;7.13;3.50;;;;;;;7.18;100.00;99141.44;6781181;26;20252;-60
2024/04/11 04:53:52;;;;;;;6.53;3.77;;;;;;;7.21;100.00;99143.72;6795518;26;20545;-57
2024/04/11 04:56:55;;;;;;;3.57;3.23;;;;;;;7.22;100.00;99145.38;6799878;26;20637;-60
2024/04/11 04:59:58;;;;;;;3.93;3.03;;;;;;;6.95;100.00;99149.50;6791190;26;20247;-60
2024/04/11 05:03:08;;;;;;;6.03;3.43;;;;;;;6.97;100.00;99152.78;6776077;26;20236;-58
2024/04/11 05:06:14;;;;;;;5.57;3.50;;;;;;;7.06;100.00;99156.97;6800563;26;20234;-58
2024/04/11 05:09:16;;;;;;;5.67;3.97;;;;;;;6.87;100.00;99150.38;6785426;26;20293;-60
2024/04/11 05:12:19;;;;;;;4.33;3.70;;;;;;;6.75;100.00;99153.66;6773158;26;20248;-59
2024/04/11 05:15:25;;;;;;;7.30;3.37;;;;;;;6.85;100.00;99159.53;6790260;26;20224;-58
2024/04/11 05:18:27;;;;;;;7.17;3.67;;;;;;;6.93;100.00;99160.25;6794465;26;20280;-59
2024/04/11 05:21:32;;;;;;;4.67;3.53;;;;;;;7.16;100.00;99154.06;6786849;26;20279;-61
2024/04/11 05:24:36;;;;;;;7.07;3.30;;;;;;;7.14;100.00;99159.56;6787706;26;20359;-57
2024/04/11 05:27:38;;;;;;;4.20;2.93;;;;;;;6.95;100.00;99168.84;6780723;26;20233;-59
2024/04/11 05:30:41;;;;;;;4.43;3.10;;;;;;;6.67;100.00;99136.84;6787818;26;20278;-59
2024/04/11 05:33:44;;;;;;;7.43;4.13;;;;;;;7.02;100.00;99170.78;6791306;26;20323;-60
2024/04/11 05:36:47;;;;;;;7.10;3.23;;;;;;;6.92;100.00;99177.16;6774621;26;20251;-60
2024/04/11 05:39:50;;;;;;;6.17;3.27;;;;;;;7.11;100.00;99175.81;6779617;26;20731;-56
2024/04/11 05:42:53;;;;;;;4.87;3.57;;;;;;;7.23;100.00;99178.81;6786091;26;20637;-60
2024/04/11 05:45:57;;;;;;;6.90;4.43;;;;;;;7.84;99.72;99170.59;6780438;26;20273;-59
2024/04/11 05:48:59;;;;;;;4.33;3.67;;;;;;;8.26;95.65;99167.94;6777688;26;21146;-58
2024/04/11 05:52:02;;;;;;;5.70;3.73;;;;;;;8.51;94.73;99175.56;6791661;26;20283;-59
2024/04/11 05:55:07;;;;;;;6.23;3.70;;;;;;;8.87;89.54;99172.78;6780491;26;20272;-57
2024/04/11 05:58:09;;;;;;;5.80;3.67;;;;;;;8.90;90.34;99185.66;6784388;26;20288;-59
2024/04/11 06:01:16;;;;;;;4.93;3.13;;;;;;;8.87;89.20;99183.41;6795958;26;20281;-60
2024/04/11 06:04:25;;;;;;;6.00;3.50;;;;;;;9.21;85.72;99185.28;6792264;26;20228;-57
2024/04/11 06:07:29;;;;;;;6.90;3.47;;;;;;;9.66;82.52;99187.53;6785997;26;20238;-59
2024/04/11 06:10:31;;;;;;;5.43;3.20;;;;;;;9.71;83.40;99191.25;6780043;26;20231;-56
2024/04/11 06:13:34;;;;;;;7.33;3.17;;;;;;;9.82;81.22;99197.81;6768747;26;20252;-59
2024/04/11 06:16:37;;;;;;;5.00;3.60;;;;;;;9.90;81.23;99188.81;6794834;26;20276;-57
2024/04/11 06:19:40;;;;;;;7.83;3.00;;;;;;;9.89;85.11;99193.34;6785337;26;20337;-59
2024/04/11 06:22:49;;;;;;;3.33;2.80;;;;;;;9.72;84.82;99194.72;6787122;26;20252;-58
2024/04/11 06:25:52;;;;;;;3.17;2.70;;;;;;;9.63;86.10;99198.56;6792772;26;20235;-60
2024/04/11 06:28:56;;;;;;;3.30;2.83;;;;;;;9.70;85.75;99204.72;6782037;26;20305;-57
2024/04/11 06:32:01;;;;;;;6.63;3.63;;;;;;;9.98;80.69;99189.47;6787057;26;20330;-56
2024/04/11 06:35:04;;;;;;;5.03;3.23;;;;;;;10.35;78.02;99194.50;6786888;26;20311;-57
2024/04/11 06:38:09;;;;;;;4.90;2.87;;;;;;;10.57;79.32;99196.78;6798624;26;20237;-57
2024/04/11 06:41:18;;;;;;;4.80;2.93;;;;;;;10.56;77.66;99191.66;6772840;26;20238;-59
2024/04/11 06:44:21;;;;;;;4.90;2.80;;;;;;;10.79;78.46;99199.25;6791776;26;20227;-59
2024/04/11 06:47:24;;;;;;;3.63;2.93;;;;;;;10.59;80.29;99202.75;6780744;26;20230;-55
2024/04/11 06:50:36;;;;;;;5.13;2.70;;;;;;;10.79;79.21;99194.75;6794504;26;20281;-59
2024/04/11 06:53:39;;;;;;;6.03;3.27;;;;;;;10.89;77.60;99205.00;6796825;26;20238;-57
2024/04/11 06:56:43;;;;;;;5.93;3.27;;;;;;;10.75;77.23;99200.69;6794284;26;20298;-55
2024/04/11 06:59:49;;;;;;;3.40;3.10;;;;;;;11.08;74.75;99196.16;6785998;26;20254;-58
2024/04/11 07:02:54;;;;;;;5.57;3.63;;;;;;;11.15;74.35;99203.31;6783198;26;20317;-60
2024/04/11 07:06:16;;;;;;;6.13;2.90;;;;;;;11.32;74.05;99207.97;6796367;26;20327;-60
2024/04/11 07:09:18;;;;;;;6.20;3.33;;;;;;;11.33;71.63;99209.66;6779854;26;20273;-59
2024/04/11 07:12:28;;;;;;;6.90;3.87;;;;;;;11.36;70.59;99209.22;6779354;26;20233;-59
2024/04/11 07:15:34;;;;;;;5.43;3.27;;;;;;;11.46;70.83;99210.63;6771646;26;20285;-59
2024/04/11 07:18:48;;;;;;;6.00;3.43;;;;;;;11.72;69.10;99212.38;6789900;26;20274;-59
2024/04/11 07:21:53;;;;;;;6.60;3.27;;;;;;;11.52;70.94;99209.78;6781560;26;20235;-58
2024/04/11 07:24:55;;;;;;;4.00;3.10;;;;;;;11.73;70.08;99212.19;6785064;26;20241;-56
2024/04/11 07:28:06;;;;;;;5.73;3.10;;;;;;;11.84;68.59;99219.56;6787856;26;20238;-57
2024/04/11 07:31:09;;;;;;;5.67;3.60;;;;;;;11.83;69.24;99219.78;6798114;26;20281;-58
2024/04/11 07:34:12;;;;;;;5.37;3.13;;;;;;;12.03;69.36;99220.50;6777827;26;20319;-60
2024/04/11 07:37:17;;;;;;;4.77;3.13;;;;;;;12.09;67.32;99218.84;6786469;26;20332;-57
2024/04/11 07:40:32;;;;;;;5.30;3.50;;;;;;;12.14;68.25;99219.00;6776818;26;20252;-58
2024/04/11 07:43:37;;;;;;;5.17;3.40;;;;;;;12.13;67.00;99212.03;6792865;26;20231;-58
2024/04/11 07:46:39;;;;;;;6.40;3.50;;;;;;;12.14;67.22;99206.47;6770242;26;20230;-58
2024/04/11 07:49:56;;;;;;;5.33;3.47;;;;;;;12.06;67.65;99230.75;6788969;26;20273;-59
2024/04/11 07:52:59;;;;;;;7.07;3.60;;;;;;;12.24;66.22;99230.03;6786030;26;20273;-57
2024/04/11 07:56:02;;;;;;;6.03;3.50;;;;;;;12.33;66.79;99230.63;6770121;26;20230;-61
2024/04/11 07:59:06;;;;;;;6.83;3.80;;;;;;;12.35;66.67;99233.88;6792503;26;20283;-61
2024/04/11 08:02:10;;;;;;;7.67;3.73;;;;;;;12.47;67.44;99228.69;6775663;26;20323;-57
2024/04/11 08:05:13;;;;;;;6.37;4.00;;;;;;;12.68;64.78;99231.00;6782937;26;20274;-61
2024/04/11 08:08:20;;;;;;;5.17;3.50;;;;;;;12.75;65.76;99231.75;6793755;26;20281;-60
2024/04/11 08:11:30;;;;;;;5.97;3.17;;;;;;;12.85;67.41;99234.75;6798245;26;20235;-59
2024/04/11 08:14:33;;;;;;;5.97;3.63;;;;;;;13.00;63.94;99222.91;6773628;26;20231;-59
2024/04/11 08:17:37;;;;;;;4.90;3.77;;;;;;;13.16;66.54;99225.88;6787955;26;20324;-59
2024/04/11 08:20:40;;;;;;;6.57;3.50;;;;;;;13.46;62.72;99233.22;6794883;26;20265;-58
2024/04/11 08:23:43;;;;;;;6.83;3.60;;;;;;;13.50;63.10;99241.63;6772221;26;20243;-59
2024/04/11 08:26:45;;;;;;;4.50;2.90;;;;;;;13.33;64.68;99236.84;6790644;26;20236;-58
2024/04/11 08:29:48;;;;;;;5.03;3.30;;;;;;;13.49;61.99;99232.75;6783234;26;20276;-57
2024/04/11 08:32:51;;;;;;;6.37;3.70;;;;;;;13.50;64.20;99247.81;6789302;26;20286;-58
2024/04/11 08:35:54;;;;;;;7.20;3.53;;;;;;;13.53;64.35;99236.63;6795118;26;20242;-59
2024/04/11 08:39:00;;;;;;;6.10;3.90;;;;;;;13.57;59.59;99223.63;6785871;26;20284;-58
2024/04/11 08:42:03;;;;;;;4.87;3.37;;;;;;;13.68;61.92;99229.03;6823910;26;20241;-60
2024/04/11 08:45:06;;;;;;;6.60;3.63;;;;;;;13.89;61.89;99235.81;6828667;26;20285;-58
2024/04/11 08:48:10;;;;;;;5.13;3.00;;;;;;;14.14;59.08;99237.56;6837592;26;20226;-60
2024/04/11 08:51:20;;;;;;;4.83;3.43;;;;;;;13.80;58.94;99239.03;6830758;25;20329;-59
2024/04/11 08:54:24;;;;;;;4.57;3.23;;;;;;;13.80;61.33;99239.03;6836927;26;20229;-57
2024/04/11 08:57:30;;;;;;;5.87;3.17;;;;;;;13.80;60.91;99234.47;6823878;25;20358;-60
2024/04/11 09:00:38;;;;;;;4.03;3.07;;;;;;;13.90;60.20;99239.31;6831937;25;20234;-58
2024/04/11 09:03:41;;;;;;;4.80;3.10;;;;;;;14.11;58.29;99238.00;6833940;26;20246;-59
2024/04/11 09:06:48;;;;;;;5.77;3.20;;;;;;;14.02;61.55;99234.81;6816875;26;20230;-59
2024/04/11 09:09:52;;;;;;;5.20;2.93;;;;;;;13.91;62.40;99228.38;6825218;26;20301;-57
2024/04/11 09:12:54;;;;;;;3.63;3.33;;;;;;;13.87;58.42;99239.75;6776348;26;20239;-60
2024/04/11 09:16:00;;;;;;;4.30;3.90;;;;;;;13.78;59.37;99243.78;6834932;26;20777;-57
2024/04/11 09:19:10;;;;;;;5.37;3.43;;;;;;;13.74;59.11;99237.22;6843228;26;20218;-57
2024/04/11 09:22:13;;;;;;;5.70;3.67;;;;;;;13.87;59.68;99227.16;6837232;26;20349;-57
2024/04/11 09:25:19;;;;;;;5.70;2.70;;;;;;;13.92;58.73;99226.50;6827124;26;20285;-59
2024/04/11 09:28:23;;;;;;;5.73;2.63;;;;;;;13.88;57.71;99241.38;6838890;26;20462;-59
2024/04/11 09:31:29;;;;;;;6.67;2.97;;;;;;;14.08;59.28;99241.94;6839652;26;20250;-59
2024/04/11 09:34:37;;;;;;;7.10;3.30;;;;;;;14.02;58.26;99242.03;6838184;25;20283;-57
2024/04/11 09:37:44;;;;;;;5.37;3.30;;;;;;;14.06;56.54;99240.56;6829869;26;20227;-57
2024/04/11 09:40:53;;;;;;;4.13;2.53;;;;;;;14.33;57.86;99243.69;6821467;26;20292;-58
2024/04/11 09:43:56;;;;;;;3.77;2.87;;;;;;;14.12;58.27;99227.06;6815297;25;20276;-59
2024/04/11 09:47:00;;;;;;;4.37;2.70;;;;;;;14.20;56.45;99236.66;6833881;25;20230;-58
2024/04/11 09:50:05;;;;;;;4.63;2.90;;;;;;;14.20;57.01;99223.25;6834223;25;20270;-57
2024/04/11 09:53:13;;;;;;;6.13;3.10;;;;;;;14.14;59.73;99225.00;6832118;25;20285;-57
2024/04/11 09:56:17;;;;;;;4.60;2.87;;;;;;;13.94;61.77;99168.16;6839261;26;20239;-56
2024/04/11 09:59:21;;;;;;;4.33;2.80;;;;;;;14.18;59.90;99230.69;6801713;26;20235;-58
2024/04/11 10:02:28;;;;;;;4.83;2.47;;;;;;;14.24;56.68;99229.81;6834111;25;20230;-56
2024/04/11 10:05:38;;;;;;;3.77;2.30;;;;;;;14.46;57.50;99227.41;6827459;25;20242;-56
2024/04/11 10:08:45;;;;;;;5.83;2.73;;;;;;;14.69;56.84;99230.19;6834950;26;20235;-56
2024/04/11 10:11:51;;;;;;;4.43;2.93;;;;;;;14.76;57.78;99221.22;6824872;25;20347;-58
2024/04/11 10:14:57;;;;;;;3.33;2.60;;;;;;;14.95;55.09;99217.41;6822658;26;20231;-59
2024/04/11 10:18:09;;;;;;;4.60;2.80;;;;;;;15.11;55.41;99221.25;6831442;26;20717;-57
2024/04/11 10:21:27;;;;;;;3.13;2.50;;;;;;;14.99;52.12;99220.44;6845124;26;20221;-56
2024/04/11 10:24:49;;;;;;;4.67;2.40;;;;;;;14.86;55.55;99224.16;6846278;26;20271;-58
2024/04/11 10:27:52;;;;;;;6.63;2.23;;;;;;;14.81;55.03;99224.84;6831258;26;20282;-57
2024/04/11 10:30:59;;;;;;;3.03;2.40;;;;;;;15.05;53.39;99214.94;6822699;26;20273;-57
2024/04/11 10:34:10;;;;;;;6.00;2.33;;;;;;;14.87;52.38;99213.19;6840913;25;20292;-56
2024/04/11 10:37:23;;;;;;;7.73;2.70;;;;;;;14.95;53.52;99203.97;6840457;26;20238;-57
2024/04/11 10:40:26;;;;;;;6.20;2.07;;;;;;;15.12;50.14;99209.44;6838791;26;20305;-57
2024/04/11 10:43:28;;;;;;;2.80;2.07;;;;;;;14.99;52.10;99207.84;6836658;25;20345;-58
2024/04/11 10:46:32;;;;;;;3.70;2.37;;;;;;;14.98;50.78;99202.72;6842910;26;20255;-58
2024/04/11 10:49:41;;;;;;;4.10;2.33;;;;;;;15.15;52.68;99204.44;6821277;25;20284;-59
2024/04/11 10:52:47;;;;;;;5.00;2.33;;;;;;;15.25;52.68;99203.84;6818058;26;20282;-58
2024/04/11 10:55:55;;;;;;;3.80;2.60;;;;;;;15.19;52.02;99204.81;6830163;26;20235;-57
2024/04/11 10:59:00;;;;;;;3.87;2.73;;;;;;;15.33;55.53;99206.19;6830677;26;20233;-56
2024/04/11 11:02:08;;;;;;;6.73;2.83;;;;;;;15.28;54.17;99203.41;6837310;26;20234;-58
2024/04/11 11:05:15;;;;;;;3.30;2.50;;;;;;;15.25;52.33;99195.00;6826707;26;20233;-58
2024/04/11 11:08:22;;;;;;;3.77;2.23;;;;;;;15.44;54.13;99200.00;6829115;26;20243;-56
2024/04/11 11:11:26;;;;;;;3.90;2.47;;;;;;;15.52;52.82;99212.25;6838337;26;20546;-59
2024/04/11 11:14:29;;;;;;;6.90;2.60;;;;;;;15.38;51.41;99200.94;6823454;26;20231;-57
2024/04/11 11:17:39;;;;;;;4.53;2.60;;;;;;;15.23;51.13;99196.03;6823420;26;20784;-59
2024/04/11 11:20:44;;;;;;;4.40;2.50;;;;;;;15.36;53.76;99197.66;6821935;26;20278;-57
2024/04/11 11:23:54;;;;;;;6.80;2.50;;;;;;;15.66;53.39;99197.53;6840094;26;20233;-57
2024/04/11 11:26:59;;;;;;;6.13;2.43;;;;;;;15.70;51.88;99193.31;6824182;26;20242;-59
2024/04/11 11:30:06;;;;;;;4.30;2.37;;;;;;;15.89;50.56;99190.44;6827327;26;20904;-59
2024/04/11 11:33:17;;;;;;;3.87;2.30;;;;;;;15.83;48.24;99177.97;6830031;25;20234;-58
2024/04/11 11:36:20;;;;;;;2.47;1.70;;;;;;;15.97;48.20;99195.44;6834610;26;20967;-58
2024/04/11 11:39:27;;;;;;;2.90;2.13;;;;;;;15.89;46.72;99179.69;6825388;26;20233;-56
2024/04/11 11:42:32;;;;;;;6.20;2.43;;;;;;;15.88;48.12;99178.88;6822949;25;20275;-56
2024/04/11 11:46:16;;;;;;;4.83;2.00;;;;;;;15.91;49.35;99169.50;6830153;26;20241;-58
2024/04/11 11:48:57;;;;;;;6.00;1.90;;;;;;;15.83;46.85;99178.78;6824649;25;20231;-59
2024/04/11 11:52:01;;;;;;;5.43;2.27;;;;;;;15.73;48.08;99163.28;6847832;26;20636;-57
2024/04/11 11:55:04;;;;;;;5.47;2.10;;;;;;;15.90;47.01;99157.94;6834841;26;20276;-58
2024/04/11 11:58:07;;;;;;;2.70;1.80;;;;;;;16.07;47.98;99151.81;6843190;26;20772;-57
2024/04/11 12:01:28;;;;;;;3.93;2.20;;;;;;;16.14;47.60;99147.91;6831047;25;20237;-57
2024/04/11 12:04:31;;;;;;;2.93;2.13;;;;;;;16.27;46.72;99156.75;6843625;26;20270;-57
2024/04/11 12:07:34;;;;;;;4.03;1.80;;;;;;;16.01;47.46;99156.28;6843745;26;20284;-58
2024/04/11 12:14:22;;;;;;;4.00;2.00;;;;;;;16.13;45.82;99138.22;6834918;26;20269;-55
2024/04/11 12:17:24;;;;;;;1.97;1.63;;;;;;;16.21;46.59;99147.78;6842845;26;20283;-56
2024/04/11 12:20:30;;;;;;;4.37;2.40;;;;;;;15.98;47.07;99144.13;6832864;26;21045;-56
2024/04/11 12:23:34;;;;;;;2.67;1.90;;;;;;;16.02;47.48;99135.59;6836482;26;20277;-58
2024/04/11 12:26:39;;;;;;;3.33;2.20;;;;;;;15.95;49.89;99125.78;6827353;26;20221;-55
2024/04/11 12:29:43;;;;;;;3.43;1.70;;;;;;;16.13;46.86;99116.72;6838629;26;20238;-58
2024/04/11 12:32:45;;;;;;;5.67;2.67;;;;;;;16.31;45.85;99121.06;6841379;26;20280;-57
2024/04/11 12:35:58;;;;;;;5.83;2.13;;;;;;;16.42;45.99;99122.03;6823937;26;20238;-55
2024/04/11 12:39:14;;;;;;;4.50;2.03;;;;;;;16.42;45.54;99122.03;6839494;26;20714;-57
2024/04/11 12:42:22;;;;;;;3.57;1.70;;;;;;;16.57;46.30;99116.91;6833244;26;20233;-57
2024/04/11 12:45:24;;;;;;;2.33;1.73;;;;;;;16.81;47.35;99127.50;6833071;26;20894;-57
2024/04/11 12:48:34;;;;;;;5.20;2.00;;;;;;;16.75;45.30;99119.38;6839722;26;20238;-57
2024/04/11 12:51:37;;;;;;;3.27;1.77;;;;;;;16.85;45.53;99120.59;6827835;25;20230;-57
2024/04/11 12:54:40;;;;;;;2.53;1.80;;;;;;;16.70;46.08;99113.88;6834616;26;20722;-56
2024/04/11 12:57:43;;;;;;;3.60;1.90;;;;;;;16.61;46.84;99098.41;6798006;26;20323;-58
2024/04/11 13:00:57;;;;;;;4.03;1.90;;;;;;;16.80;45.47;99115.09;6828266;26;20233;-56
2024/04/11 13:04:08;;;;;;;5.00;1.70;;;;;;;17.02;45.42;99100.63;6824128;26;20234;-57
2024/04/11 13:07:10;;;;;;;4.27;2.50;;;;;;;16.77;47.04;99106.47;6824957;26;21082;-54
2024/04/11 13:10:15;;;;;;;3.37;1.90;;;;;;;16.72;47.49;99109.09;6795219;26;20331;-57
2024/04/11 13:13:23;;;;;;;3.17;1.70;;;;;;;16.76;45.80;99104.84;6797450;26;20238;-56
2024/04/11 13:16:25;;;;;;;4.93;2.37;;;;;;;16.66;46.52;99098.47;6825502;26;20227;-57
2024/04/11 13:19:39;;;;;;;6.97;1.83;;;;;;;16.71;45.09;99093.16;6834042;26;20281;-56
2024/04/11 13:22:48;;;;;;;4.40;1.70;;;;;;;16.81;45.81;99087.97;6805392;26;20226;-56
2024/04/11 13:25:57;;;;;;;3.47;1.70;;;;;;;17.08;45.41;99090.72;6827394;26;20277;-58
2024/04/11 13:29:00;;;;;;;3.23;1.63;;;;;;;17.07;44.83;99099.88;6822890;26;20342;-57
2024/04/11 13:32:04;;;;;;;3.50;1.80;;;;;;;17.21;42.84;99078.78;6827786;26;20227;-57
2024/04/11 13:35:14;;;;;;;6.30;1.80;;;;;;;17.00;45.04;99091.19;6833754;26;20314;-57
2024/04/11 13:38:21;;;;;;;3.93;1.60;;;;;;;17.29;44.14;99089.13;6843855;26;20268;-58
2024/04/11 13:44:45;;;;;;;2.20;1.90;;;;;;;17.15;43.54;99082.50;6825924;26;20270;-58
2024/04/11 13:47:58;;;;;;;2.53;1.47;;;;;;;17.22;43.40;99081.22;6825889;26;20316;-57
2024/04/11 13:51:03;;;;;;;2.50;1.50;;;;;;;17.08;43.52;99077.28;6843962;25;20230;-58
2024/04/11 13:54:07;;;;;;;3.90;1.97;;;;;;;17.06;42.70;99075.91;6832596;26;20281;-57
2024/04/11 13:57:10;;;;;;;3.13;1.63;;;;;;;17.28;44.39;99074.81;6831101;26;20229;-59
2024/04/11 14:00:13;;;;;;;4.83;1.90;;;;;;;17.31;43.32;99078.09;6832433;26;20273;-58
2024/04/11 14:03:23;;;;;;;4.27;1.87;;;;;;;17.08;44.25;99074.56;6845272;26;20305;-56
2024/04/11 14:06:57;;;;;;;3.33;1.50;;;;;;;17.12;44.84;99075.72;6840045;26;20284;-57
2024/04/11 14:09:52;;;;;;;3.37;1.80;;;;;;;17.32;44.65;99077.03;6830823;26;20230;-56
2024/04/11 14:12:55;;;;;;;9.90;1.97;;;;;;;17.40;43.35;99080.09;6832777;25;20343;-58
2024/04/11 14:16:04;;;;;;;3.60;1.73;;;;;;;17.46;42.57;99067.50;6842209;26;20338;-55
2024/04/11 14:19:07;;;;;;;5.53;1.80;;;;;;;17.35;42.37;99068.47;6837490;26;20223;-56
2024/04/11 14:25:39;;;;;;;3.03;1.90;;;;;;;17.35;43.52;99066.56;6828888;26;20226;-57
2024/04/11 14:28:43;;;;;;;3.47;1.80;;;;;;;17.28;44.74;99069.44;6834499;26;20245;-58
2024/04/11 14:31:52;;;;;;;4.47;1.77;;;;;;;17.31;43.72;99064.63;6806750;26;20239;-57
2024/04/11 14:38:09;;;;;;;4.30;1.80;;;;;;;17.51;43.43;99065.69;6828954;26;20234;-58
2024/04/11 14:41:11;;;;;;;4.87;2.00;;;;;;;17.38;42.69;99068.75;6825735;26;20230;-57
2024/04/11 14:44:18;;;;;;;4.40;1.63;;;;;;;17.03;42.53;99017.97;6815917;26;20309;-57
2024/04/11 14:47:21;;;;;;;4.63;1.80;;;;;;;17.32;42.26;99064.38;6820423;26;20284;-59
2024/04/11 14:50:23;;;;;;;5.03;1.80;;;;;;;17.35;43.84;99049.59;6823658;25;20238;-58